Acton, Indiana
Current Conditions -  °F | °C
As of 8:53 AM on Tuesday 27 Jan 2015 (Local Time) from KGEZ Reporting Station
Overcast Overcast  
Wind Chill: -9°   Ceiling: 3000
Heat Index: -4°   Visibility: 8mi
Dew Point: -7°   Wind: 9mph
Humidity: 78%   Direction: 60°ENE
Pressure: 30.03"   Gusts: NA
Location:  39.6613°N, 85.9949°W
Report Text: KGEZ 271353Z AUTO 06008KT 8SM BKN030 OVC048 M04/M07 A3003 RMK AO2 SLP179 T10391072
Loading
Personal Weather Stations






























Interactive Weather Map New forecast layout! Learn more

10-Day Weather Forecast

Advertisements
Track Severe Weather on mobile